Allegan, MI

7:17 PM EDT on October 13, 2019 (GMT -0400)
Allegan | | Change Station
Active Advisory: Lakeshore Flood Advisory Active Notice: Lakeshore Flood Advisory

Elev 633 ft 42.54 °N, 85.87 °W | Updated 9 minutes ago

Overcast
Overcast
44.7 °F
Feels Like 45 °F
N
0
Wind Variable Wind from South
Gusts 1.0 mph

Today
High -- | Low -- °F
--% Chance of Precip.
Yesterday
High -- | Low -- °F
Precip. -- in
Pressure 29.87 in
Visibility 10.0 miles
Clouds Scattered Clouds 3300 ft
Mostly Cloudy 4200 ft
Overcast 5500 ft
Windchill 45 °F
Dew Point 40 °F
Humidity 83%
Rainfall 0.00 in
Snow Depth Not available.
7:53 AM 7:04 PM
Full, 100% visible
METAR KBIV 132253Z AUTO 28012G20KT 10SM SCT033 BKN042 OVC055 08/03 A2986 RMK AO2 PK WND 27026/2231 SLP113 T00830028
Pressure 29.87 in
Visibility 10.0 miles
Clouds Scattered Clouds 3300 ft
Mostly Cloudy 4200 ft
Overcast 5500 ft
Windchill 45 °F
Dew Point 40 °F
Humidity 83%
Rainfall 0.00 in
Snow Depth Not available.
7:53 AM 7:04 PM
Full, 100% visible
METAR KBIV 132253Z AUTO 28012G20KT 10SM SCT033 BKN042 OVC055 08/03 A2986 RMK AO2 PK WND 27026/2231 SLP113 T00830028

Get Your Daily Forecast Email!

Thanks for signing up!

Be on the lookout for a verification email in your inbox.

You'll start receiving severe weather alerts in your inbox..

×

10-Day Weather Forecast

Almanac

Astronomy

Oct. 13, 2019 Rise Set
Actual Time
Civil Twilight
Nautical Twilight
Astronomical Twilight
Moon
Length of Visible Light
Length of Day
Tomorrow will be .
, % of the Moon is Illuminated

Today's Extremes

State Highs State Lows

Community

WunderPhotos

Category 6

Welcome to Category 6. This is the collective home for Weather Underground's featured writeups by Dr. Jeff Masters (right), Bob Henson (left), Chris Burt, and other regular contributors.

Nearby

Air Quality

  Air Quality AQ Index Pollutant
Not available.

Snow Depth

Station Depth Elevation

Earthquake Activity

City Distance Mag. Time & Date
Minimum magnitude displayed is 2.5.

Coastal Water Temperatures

Place Temperature

Stations

Nearby Weather Stations

Station Location Temp. Windchill Dew Point Humidity Wind Precip. Elev Updated Type
                   

Watches & Warnings

Lakeshore Flood Advisory
Issued: 3:37 PM EDT Oct. 13, 2019 – National Weather Service

... Lakeshore flood advisory remains in effect until 11 PM EDT
this evening...

* winds... west to southwest 20 to 30 mph weakening overnight into
Monday.

* Waves... 5 to 8 feet slowly subsiding overnight into Monday.

* Impacts... beach and dune erosion is expected. Flooding of low
lying areas near the Lakeshore is possible, including along
river channels near the lake.

Precautionary/preparedness actions...

Prepare for flooding of low areas, including some roads, along
the Lakeshore.




Weather.Gov/GRR